Terminal Aerodrome Forecast
Issued by NWS Sioux Falls, SD

Home | Current Version | Previous Version | Text Only | Print | Product List | Glossary Off
Versions: 1 2 3 4 5 6 7 8 9 10 11 12 13 14 15 16 17

529
FTUS43 KFSD 251605 AAB
TAFFSD
TAF AMD
KFSD 251605Z 2516/2612 20010G16KT P6SM BKN025
     FM251800 20010G16KT P6SM BKN035
     FM252100 22010KT P6SM BKN040
     FM260100 19007KT P6SM SCT250
     FM260900 25004KT P6SM SCT200=

USA.gov is the U.S. government's official web portal to all federal, state and local government web resources and services.